createdAt,value
2018-03-24T00:00:51.917Z,87.82
2018-03-24T00:01:51.927Z,87.82
2018-03-24T00:02:51.940Z,87.72
2018-03-24T00:03:51.956Z,88.10
2018-03-24T00:04:51.968Z,87.82
2018-03-24T00:05:51.975Z,87.62
2018-03-24T00:06:51.997Z,88.01
2018-03-24T00:07:52.008Z,87.72
2018-03-24T00:08:52.018Z,88.20
2018-03-24T00:09:52.029Z,88.29
2018-03-24T00:10:52.046Z,88.48
2018-03-24T00:11:52.053Z,88.20
2018-03-24T00:12:52.085Z,88.29
2018-03-24T00:13:52.077Z,88.67
2018-03-24T00:14:52.092Z,88.57
2018-03-24T00:15:52.103Z,89.33
2018-03-24T00:16:52.125Z,89.33
2018-03-24T00:17:52.131Z,89.05
2018-03-24T00:18:52.139Z,89.53
2018-03-24T00:19:52.156Z,89.62
2018-03-24T00:20:52.164Z,89.33
2018-03-24T00:21:52.180Z,89.81
2018-03-24T00:22:52.194Z,89.90
2018-03-24T00:23:52.239Z,90.05
2018-03-24T00:24:52.214Z,89.81
2018-03-24T00:25:52.235Z,90.38
2018-03-24T00:26:52.249Z,89.81
2018-03-24T00:27:52.256Z,90.14
2018-03-24T00:28:52.276Z,90.33
2018-03-24T00:29:52.281Z,90.43
2018-03-24T00:30:52.299Z,90.43
2018-03-24T00:31:52.302Z,90.43
2018-03-24T00:32:52.315Z,90.52
2018-03-24T00:33:52.329Z,90.62
2018-03-24T00:34:52.351Z,90.81
2018-03-24T00:35:52.354Z,90.62
2018-03-24T00:36:52.370Z,91.09
2018-03-24T00:37:52.382Z,91.00
2018-03-24T00:38:52.388Z,90.43
2018-03-24T00:39:52.403Z,91.00
2018-03-24T00:40:52.422Z,91.00
2018-03-24T00:41:52.428Z,90.81
2018-03-24T00:42:52.442Z,90.43
2018-03-24T00:43:52.458Z,91.00
2018-03-24T00:44:52.465Z,90.81
2018-03-24T00:45:52.484Z,91.38
2018-03-24T00:46:52.489Z,91.75
2018-03-24T00:47:52.517Z,91.75
2018-03-24T00:48:52.519Z,91.75
2018-03-24T00:49:52.525Z,91.85
2018-03-24T00:50:52.556Z,91.66
2018-03-24T00:51:52.548Z,91.66
2018-03-24T00:52:52.565Z,92.04
2018-03-24T00:53:52.574Z,91.94
2018-03-24T00:54:52.591Z,91.66
2018-03-24T00:55:52.605Z,91.56
2018-03-24T00:56:52.617Z,92.33
2018-03-24T00:57:52.627Z,92.33
2018-03-24T00:58:52.641Z,92.42
2018-03-24T00:59:52.654Z,92.71
2018-03-24T01:00:52.665Z,92.90
2018-03-24T01:01:52.675Z,93.56
2018-03-24T01:02:52.689Z,92.90
2018-03-24T01:03:52.700Z,92.71
2018-03-24T01:04:52.724Z,92.80
2018-03-24T01:05:52.734Z,92.71
2018-03-24T01:06:52.738Z,92.52
2018-03-24T01:07:52.747Z,93.08
2018-03-24T01:08:52.762Z,93.04
2018-03-24T01:09:52.772Z,93.23
2018-03-24T01:10:52.790Z,93.32
2018-03-24T01:11:52.798Z,93.51
2018-03-24T01:12:52.811Z,93.51
2018-03-24T01:13:52.820Z,93.89
2018-03-24T01:14:52.832Z,93.99
2018-03-24T01:15:52.857Z,94.18
2018-03-24T01:16:52.867Z,93.99
2018-03-24T01:17:52.870Z,94.08
2018-03-24T01:18:52.881Z,93.99
2018-03-24T01:19:52.893Z,94.46
2018-03-24T01:20:52.912Z,94.37
2018-03-24T01:21:52.928Z,94.08
2018-03-24T01:22:52.940Z,93.89
2018-03-24T01:23:52.944Z,94.27
2018-03-24T01:24:52.974Z,93.80
2018-03-24T01:25:52.977Z,93.70
2018-03-24T01:26:52.984Z,93.70
2018-03-24T01:27:53.041Z,93.32
2018-03-24T01:28:53.006Z,93.32
2018-03-24T01:29:53.085Z,93.13
2018-03-24T01:30:53.027Z,93.32
2018-03-24T01:31:53.038Z,93.23
2018-03-24T01:32:53.051Z,92.94
2018-03-24T01:33:53.073Z,92.94
2018-03-24T01:34:53.076Z,92.66
2018-03-24T01:35:53.092Z,92.76
2018-03-24T01:36:53.104Z,92.66
2018-03-24T01:37:53.116Z,92.85
2018-03-24T01:38:53.125Z,92.09
2018-03-24T01:39:53.146Z,92.09
2018-03-24T01:40:53.147Z,92.38
2018-03-24T01:41:53.162Z,92.57
2018-03-24T01:42:53.172Z,92.38
2018-03-24T01:43:53.189Z,91.90
2018-03-24T01:44:53.204Z,92.28
2018-03-24T01:45:53.209Z,92.28
2018-03-24T01:46:53.219Z,92.18
2018-03-24T01:47:53.232Z,92.66
2018-03-24T01:48:53.244Z,92.85
2018-03-24T01:49:53.254Z,92.76
2018-03-24T01:50:53.268Z,92.28
2018-03-24T01:51:53.282Z,91.80
2018-03-24T01:52:53.292Z,91.61
2018-03-24T01:53:53.310Z,92.09
2018-03-24T01:54:53.312Z,91.80
2018-03-24T01:55:53.322Z,91.61
2018-03-24T01:56:53.331Z,92.09
2018-03-24T01:57:53.348Z,91.52
2018-03-24T01:58:53.356Z,91.61
2018-03-24T01:59:53.373Z,92.57
2018-03-24T02:00:53.379Z,91.99
2018-03-24T02:01:53.391Z,91.95
2018-03-24T02:02:53.407Z,91.71
2018-03-24T02:03:53.417Z,92.09
2018-03-24T02:04:53.430Z,91.99
2018-03-24T02:05:53.437Z,92.04
2018-03-24T02:06:53.452Z,92.18
2018-03-24T02:07:53.465Z,91.95
2018-03-24T02:08:53.478Z,91.57
2018-03-24T02:09:53.486Z,91.95
2018-03-24T02:10:53.504Z,92.71
2018-03-24T02:11:53.562Z,92.42
2018-03-24T02:12:53.521Z,92.14
2018-03-24T02:13:53.531Z,92.33
2018-03-24T02:14:53.545Z,92.52
2018-03-24T02:15:53.559Z,92.61
2018-03-24T02:16:53.568Z,92.80
2018-03-24T02:17:53.583Z,92.90
2018-03-24T02:18:53.591Z,92.71
2018-03-24T02:19:53.603Z,92.90
2018-03-24T02:20:53.623Z,92.99
2018-03-24T02:21:53.626Z,92.61
2018-03-24T02:22:53.640Z,93.27
2018-03-24T02:23:53.651Z,93.56
2018-03-24T02:24:53.665Z,92.61
2018-03-24T02:25:53.674Z,93.27
2018-03-24T02:26:53.688Z,93.27
2018-03-24T02:27:53.712Z,93.46
2018-03-24T02:28:53.708Z,93.46
2018-03-24T02:29:53.726Z,93.56
2018-03-24T02:30:53.732Z,93.75
2018-03-24T02:31:53.745Z,93.56
2018-03-24T02:32:53.757Z,93.37
2018-03-24T02:33:53.770Z,93.65
2018-03-24T02:34:53.779Z,94.04
2018-03-24T02:35:53.794Z,94.60
2018-03-24T02:36:53.804Z,94.79
2018-03-24T02:37:53.818Z,94.42
2018-03-24T02:38:53.826Z,94.23
2018-03-24T02:39:53.841Z,94.89
2018-03-24T02:40:53.852Z,95.17
2018-03-24T02:41:53.861Z,94.98
2018-03-24T02:42:53.887Z,95.65
2018-03-24T02:43:53.888Z,95.07
2018-03-24T02:44:53.901Z,95.07
2018-03-24T02:45:53.915Z,94.89
2018-03-24T02:46:53.920Z,94.89
2018-03-24T02:47:53.936Z,95.36
2018-03-24T02:48:53.944Z,94.98
2018-03-24T02:49:53.954Z,95.36
2018-03-24T02:50:53.969Z,95.36
2018-03-24T02:51:53.980Z,95.84
2018-03-24T02:52:53.991Z,95.65
2018-03-24T02:53:54.007Z,95.84
2018-03-24T02:54:54.014Z,95.55
2018-03-24T02:55:54.027Z,96.22
2018-03-24T02:56:54.037Z,96.31
2018-03-24T02:57:54.048Z,96.73
2018-03-24T02:58:54.062Z,96.59
2018-03-24T02:59:54.074Z,96.97
2018-03-24T03:00:54.082Z,96.92
2018-03-24T03:01:54.100Z,97.11
2018-03-24T03:02:54.108Z,96.55
2018-03-24T03:03:54.117Z,97.02
2018-03-24T03:04:54.132Z,97.02
2018-03-24T03:05:54.139Z,96.73
2018-03-24T03:06:54.159Z,97.49
2018-03-24T03:07:54.169Z,97.30
2018-03-24T03:08:54.178Z,97.21
2018-03-24T03:09:54.185Z,97.49
2018-03-24T03:10:54.200Z,97.78
2018-03-24T03:11:54.209Z,98.06
2018-03-24T03:12:54.220Z,97.97
2018-03-24T03:13:54.232Z,97.87
2018-03-24T03:14:54.243Z,98.54
2018-03-24T03:15:54.254Z,98.54
2018-03-24T03:16:54.267Z,98.35
2018-03-24T03:17:54.276Z,98.54
2018-03-24T03:18:54.290Z,98.54
2018-03-24T03:19:54.301Z,98.25
2018-03-24T03:20:54.315Z,98.25
2018-03-24T03:21:54.327Z,98.72
2018-03-24T03:22:54.335Z,98.91
2018-03-24T03:23:54.347Z,98.91
2018-03-24T03:24:54.356Z,98.91
2018-03-24T03:25:54.369Z,99.01
2018-03-24T03:26:54.380Z,98.54
2018-03-24T03:27:54.415Z,98.72
2018-03-24T03:28:54.406Z,98.72
2018-03-24T03:29:54.718Z,98.35
2018-03-24T03:30:54.425Z,98.35
2018-03-24T03:31:54.438Z,98.72
2018-03-24T03:32:54.445Z,98.63
2018-03-24T03:33:54.457Z,98.91
2018-03-24T03:34:54.468Z,99.01
2018-03-24T03:35:54.481Z,98.82
2018-03-24T03:36:54.494Z,98.35
2018-03-24T03:37:54.512Z,98.54
2018-03-24T03:38:54.515Z,98.63
2018-03-24T03:39:54.527Z,98.54
2018-03-24T03:40:54.537Z,99.10
2018-03-24T03:41:54.548Z,99.01
2018-03-24T03:42:54.563Z,98.82
2018-03-24T03:43:54.572Z,99.58
2018-03-24T03:44:54.581Z,99.58
2018-03-24T03:45:54.593Z,99.39
2018-03-24T03:46:54.613Z,99.58
2018-03-24T03:47:54.617Z,99.39
2018-03-24T03:48:54.628Z,99.77
2018-03-24T03:49:54.639Z,99.67
2018-03-24T03:50:54.656Z,99.58
2018-03-24T03:51:54.664Z,99.39
2018-03-24T03:52:54.676Z,99.67
2018-03-24T03:53:54.686Z,99.58
2018-03-24T03:54:54.695Z,99.67
2018-03-24T03:55:54.720Z,99.39
2018-03-24T03:56:54.721Z,99.39
2018-03-24T03:57:54.737Z,99.99
2018-03-24T03:58:54.743Z,99.96
2018-03-24T03:59:54.753Z,99.96
2018-03-24T04:00:54.766Z,99.58
2018-03-24T04:01:54.786Z,99.48
2018-03-24T04:02:54.793Z,99.48
2018-03-24T04:03:54.798Z,99.96
2018-03-24T04:04:54.807Z,99.67
2018-03-24T04:05:54.821Z,99.99
2018-03-24T04:06:54.836Z,99.99
2018-03-24T04:07:54.841Z,99.99
2018-03-24T04:08:54.852Z,99.99
2018-03-24T04:09:54.864Z,99.99
2018-03-24T04:10:54.876Z,99.99
2018-03-24T04:11:54.921Z,99.99
2018-03-24T04:12:54.898Z,99.99
2018-03-24T04:13:54.910Z,99.99
2018-03-24T04:14:54.919Z,99.99
2018-03-24T04:15:54.938Z,99.99
2018-03-24T04:16:54.943Z,99.96
2018-03-24T04:17:54.965Z,99.99
2018-03-24T04:18:54.966Z,99.99
2018-03-24T04:19:54.976Z,99.99
2018-03-24T04:20:54.989Z,99.99
2018-03-24T04:21:54.999Z,99.99
2018-03-24T04:22:55.010Z,99.99
2018-03-24T04:23:55.022Z,99.99
2018-03-24T04:24:55.032Z,99.99
2018-03-24T04:25:55.058Z,99.99
2018-03-24T04:26:55.054Z,99.99
2018-03-24T04:27:55.065Z,99.99
2018-03-24T04:28:55.078Z,99.99
2018-03-24T04:29:55.086Z,99.99
2018-03-24T04:30:55.098Z,99.99
2018-03-24T04:31:55.111Z,99.99
2018-03-24T04:32:55.120Z,99.99
2018-03-24T04:33:55.132Z,99.99
2018-03-24T04:34:55.143Z,99.99
2018-03-24T04:35:55.155Z,99.99
2018-03-24T04:36:55.163Z,99.99
2018-03-24T04:37:55.175Z,99.99
2018-03-24T04:38:55.187Z,99.99
2018-03-24T04:39:55.202Z,99.99
2018-03-24T04:40:55.513Z,99.99
2018-03-24T04:41:55.220Z,99.99
2018-03-24T04:42:55.231Z,99.99
2018-03-24T04:43:55.243Z,99.99
2018-03-24T04:44:55.252Z,99.99
2018-03-24T04:45:55.265Z,99.99
2018-03-24T04:46:55.275Z,99.99
2018-03-24T04:47:55.287Z,99.99
2018-03-24T04:48:55.296Z,99.99
2018-03-24T04:49:55.309Z,99.99
2018-03-24T04:50:55.325Z,99.99
2018-03-24T04:51:55.329Z,99.99
2018-03-24T04:52:55.351Z,99.99
2018-03-24T04:53:55.355Z,99.99
2018-03-24T04:54:55.371Z,99.99
2018-03-24T04:55:55.380Z,99.99
2018-03-24T04:56:55.388Z,99.99
2018-03-24T04:57:55.397Z,99.99
2018-03-24T04:58:55.407Z,99.99
2018-03-24T04:59:55.418Z,99.99
2018-03-24T05:00:55.432Z,99.99
2018-03-24T05:01:55.440Z,99.99
2018-03-24T05:02:55.453Z,99.99
2018-03-24T05:03:55.497Z,99.99
2018-03-24T05:04:55.474Z,99.99
2018-03-24T05:05:55.499Z,99.99
2018-03-24T05:06:55.500Z,99.99
2018-03-24T05:07:55.508Z,99.99
2018-03-24T05:08:55.520Z,99.99
2018-03-24T05:09:55.529Z,99.99
2018-03-24T05:10:55.543Z,99.99
2018-03-24T05:11:55.553Z,99.99
2018-03-24T05:12:55.561Z,99.99
2018-03-24T05:13:55.577Z,99.99
2018-03-24T05:14:55.586Z,99.99
2018-03-24T05:15:55.594Z,99.99
2018-03-24T05:16:55.607Z,99.99
2018-03-24T05:17:55.620Z,99.99
2018-03-24T05:18:55.630Z,99.99
2018-03-24T05:19:55.643Z,99.99
2018-03-24T05:20:55.650Z,99.99
2018-03-24T05:21:55.664Z,99.99
2018-03-24T05:22:55.673Z,99.99
2018-03-24T05:23:55.688Z,99.99
2018-03-24T05:24:55.710Z,99.99
2018-03-24T05:25:55.710Z,99.99
2018-03-24T05:26:55.719Z,99.99
2018-03-24T05:27:55.728Z,99.99
2018-03-24T05:28:55.771Z,99.99
2018-03-24T05:29:55.757Z,99.99
2018-03-24T05:30:55.763Z,99.99
2018-03-24T05:31:55.771Z,99.99
2018-03-24T05:32:55.782Z,99.99
2018-03-24T05:33:55.795Z,99.99
2018-03-24T05:34:55.809Z,99.99
2018-03-24T05:35:55.816Z,99.99
2018-03-24T05:36:55.830Z,99.99
2018-03-24T05:37:55.838Z,99.99
2018-03-24T05:38:55.852Z,99.99
2018-03-24T05:39:55.859Z,99.99
2018-03-24T05:40:55.878Z,99.99
2018-03-24T05:41:55.896Z,99.99
2018-03-24T05:42:55.895Z,99.99
2018-03-24T05:43:55.906Z,99.99
2018-03-24T05:44:55.917Z,99.99
2018-03-24T05:45:55.923Z,99.99
2018-03-24T05:46:55.946Z,99.99
2018-03-24T05:47:55.950Z,99.99
2018-03-24T05:48:55.959Z,99.99
2018-03-24T05:49:55.970Z,99.99
2018-03-24T05:50:55.980Z,99.99
2018-03-24T05:51:55.995Z,99.99
2018-03-24T05:52:56.004Z,99.99
2018-03-24T05:53:56.017Z,99.99
2018-03-24T05:54:56.028Z,99.99
2018-03-24T05:55:56.036Z,99.99
2018-03-24T05:56:56.053Z,99.99
2018-03-24T05:57:56.056Z,99.99
2018-03-24T05:58:56.070Z,99.99
2018-03-24T05:59:56.082Z,99.99
2018-03-24T06:00:56.093Z,99.99
2018-03-24T06:01:56.105Z,99.99
2018-03-24T06:02:56.112Z,99.99
2018-03-24T06:03:56.125Z,99.99
2018-03-24T06:04:56.145Z,99.99
2018-03-24T06:05:56.146Z,99.99
2018-03-24T06:06:56.157Z,99.99
2018-03-24T06:07:56.167Z,99.99
2018-03-24T06:08:56.185Z,99.99
2018-03-24T06:09:56.197Z,99.99
2018-03-24T06:10:56.202Z,99.99
2018-03-24T06:11:56.214Z,99.99
2018-03-24T06:12:56.225Z,99.99
2018-03-24T06:13:56.242Z,99.99
2018-03-24T06:14:56.245Z,99.99
2018-03-24T06:15:56.258Z,99.99
2018-03-24T06:16:56.269Z,99.99
2018-03-24T06:17:56.280Z,99.99
2018-03-24T06:18:56.290Z,99.99
2018-03-24T06:19:56.307Z,99.99
2018-03-24T06:20:56.315Z,99.99
2018-03-24T06:21:56.329Z,99.99
2018-03-24T06:22:56.332Z,99.99
2018-03-24T06:23:56.344Z,99.99
2018-03-24T06:24:56.362Z,99.99
2018-03-24T06:25:56.366Z,99.99
2018-03-24T06:26:56.376Z,99.99
2018-03-24T06:27:56.394Z,99.99
2018-03-24T06:28:56.402Z,99.99
2018-03-24T06:29:56.409Z,99.99
2018-03-24T06:30:56.425Z,99.99
2018-03-24T06:31:56.439Z,99.99
2018-03-24T06:32:56.446Z,99.99
2018-03-24T06:33:56.471Z,99.99
2018-03-24T06:34:56.469Z,99.99
2018-03-24T06:35:56.484Z,99.86
2018-03-24T06:36:56.488Z,99.86
2018-03-24T06:37:56.500Z,99.67
2018-03-24T06:38:56.511Z,99.48
2018-03-24T06:39:56.529Z,99.44
2018-03-24T06:40:56.537Z,99.72
2018-03-24T06:41:56.544Z,98.58
2018-03-24T06:42:56.556Z,98.49
2018-03-24T06:43:56.571Z,98.02
2018-03-24T06:44:56.635Z,98.02
2018-03-24T06:45:56.591Z,97.64
2018-03-24T06:46:56.603Z,97.73
2018-03-24T06:47:56.615Z,97.07
2018-03-24T06:48:56.626Z,97.26
2018-03-24T06:49:56.637Z,98.21
2018-03-24T06:50:56.665Z,97.92
2018-03-24T06:51:56.656Z,97.64
2018-03-24T06:52:56.679Z,97.35
2018-03-24T06:53:56.698Z,97.83
2018-03-24T06:54:56.696Z,97.64
2018-03-24T06:55:56.710Z,98.02
2018-03-24T06:56:56.720Z,96.97
2018-03-24T06:57:56.734Z,97.07
2018-03-24T06:58:56.746Z,97.26
2018-03-24T06:59:56.754Z,97.16
2018-03-24T07:00:56.762Z,97.35
2018-03-24T07:01:56.774Z,97.45
2018-03-24T07:02:56.785Z,97.64
2018-03-24T07:03:56.799Z,97.54
2018-03-24T07:04:56.815Z,97.64
2018-03-24T07:05:56.823Z,97.35
2018-03-24T07:06:56.832Z,97.35
2018-03-24T07:07:56.842Z,97.54
2018-03-24T07:08:56.861Z,97.64
2018-03-24T07:09:56.869Z,97.16
2018-03-24T07:10:56.877Z,97.26
2018-03-24T07:11:56.890Z,97.07
2018-03-24T07:12:56.898Z,97.35
2018-03-24T07:13:56.906Z,97.64
2018-03-24T07:14:56.919Z,97.35
2018-03-24T07:15:56.928Z,96.88
2018-03-24T07:16:56.940Z,96.97
2018-03-24T07:17:56.955Z,96.69
2018-03-24T07:18:56.971Z,97.16
2018-03-24T07:19:56.976Z,96.22
2018-03-24T07:20:56.990Z,96.31
2018-03-24T07:21:57.002Z,96.12
2018-03-24T07:22:57.012Z,96.97
2018-03-24T07:23:57.021Z,96.12
2018-03-24T07:24:57.033Z,96.03
2018-03-24T07:25:57.045Z,96.12
2018-03-24T07:26:57.060Z,96.12
2018-03-24T07:27:57.067Z,95.74
2018-03-24T07:28:57.107Z,95.41
2018-03-24T07:29:57.090Z,95.98
2018-03-24T07:30:57.111Z,95.31
2018-03-24T07:31:57.118Z,94.84
2018-03-24T07:32:57.126Z,94.74
2018-03-24T07:33:57.137Z,93.99
2018-03-24T07:34:57.155Z,94.27
2018-03-24T07:35:57.163Z,94.08
2018-03-24T07:36:57.172Z,94.08
2018-03-24T07:37:57.188Z,94.08
2018-03-24T07:38:57.197Z,94.18
2018-03-24T07:39:57.209Z,94.08
2018-03-24T07:40:57.218Z,94.18
2018-03-24T07:41:57.230Z,93.89
2018-03-24T07:42:57.242Z,94.37
2018-03-24T07:43:57.255Z,93.23
2018-03-24T07:44:57.266Z,93.23
2018-03-24T07:45:57.275Z,93.04
2018-03-24T07:46:57.288Z,93.23
2018-03-24T07:47:57.304Z,92.47
2018-03-24T07:48:57.310Z,92.42
2018-03-24T07:49:57.324Z,92.33
2018-03-24T07:50:57.336Z,92.42
2018-03-24T07:51:57.353Z,91.47
2018-03-24T07:52:57.358Z,91.19
2018-03-24T07:53:57.371Z,91.85
2018-03-24T07:54:57.387Z,91.47
2018-03-24T07:55:57.395Z,91.66
2018-03-24T07:56:57.405Z,91.75
2018-03-24T07:57:57.418Z,91.00
2018-03-24T07:58:57.433Z,91.09
2018-03-24T07:59:57.443Z,91.00
2018-03-24T08:00:57.457Z,90.62
2018-03-24T08:01:57.466Z,90.43
2018-03-24T08:02:57.478Z,90.52
2018-03-24T08:03:57.491Z,90.14
2018-03-24T08:04:57.502Z,90.24
2018-03-24T08:05:57.513Z,89.86
2018-03-24T08:06:57.527Z,89.29
2018-03-24T08:07:57.539Z,89.14
2018-03-24T08:08:57.550Z,89.14
2018-03-24T08:09:57.563Z,89.05
2018-03-24T08:10:57.576Z,88.67
2018-03-24T08:11:57.586Z,87.91
2018-03-24T08:12:57.602Z,87.72
2018-03-24T08:13:57.616Z,87.72
2018-03-24T08:14:57.624Z,87.05
2018-03-24T08:15:57.638Z,86.58
2018-03-24T08:16:57.648Z,86.96
2018-03-24T08:17:57.667Z,86.39
2018-03-24T08:18:57.674Z,86.30
2018-03-24T08:19:57.701Z,86.20
2018-03-24T08:20:57.699Z,85.72
2018-03-24T08:21:57.718Z,86.01
2018-03-24T08:22:57.723Z,86.11
2018-03-24T08:23:57.736Z,86.20
2018-03-24T08:24:57.747Z,86.30
2018-03-24T08:25:57.761Z,85.96
2018-03-24T08:26:57.774Z,85.96
2018-03-24T08:27:57.788Z,85.68
2018-03-24T08:28:57.799Z,85.30
2018-03-24T08:29:57.812Z,85.30
2018-03-24T08:30:57.832Z,84.82
2018-03-24T08:31:57.837Z,84.44
2018-03-24T08:32:57.852Z,84.25
2018-03-24T08:33:57.862Z,84.72
2018-03-24T08:34:57.876Z,84.72
2018-03-24T08:35:57.888Z,84.25
2018-03-24T08:36:57.907Z,84.34
2018-03-24T08:37:57.916Z,83.68
2018-03-24T08:38:57.931Z,83.39
2018-03-24T08:39:57.943Z,83.49
2018-03-24T08:40:57.955Z,83.20
2018-03-24T08:41:57.967Z,83.20
2018-03-24T08:42:57.978Z,83.01
2018-03-24T08:43:57.998Z,83.20
2018-03-24T08:44:58.002Z,82.82
2018-03-24T08:45:58.019Z,82.64
2018-03-24T08:46:58.034Z,82.64
2018-03-24T08:47:58.044Z,82.35
2018-03-24T08:48:58.054Z,82.73
2018-03-24T08:49:58.076Z,82.49
2018-03-24T08:50:58.091Z,82.26
2018-03-24T08:51:58.100Z,82.07
2018-03-24T08:52:58.108Z,82.49
2018-03-24T08:53:58.118Z,82.01
2018-03-24T08:54:58.133Z,82.01
2018-03-24T08:55:58.149Z,82.29
2018-03-24T08:56:58.157Z,81.73
2018-03-24T08:57:58.171Z,81.63
2018-03-24T08:58:58.190Z,81.73
2018-03-24T08:59:58.198Z,81.35
2018-03-24T09:00:58.216Z,80.96
2018-03-24T09:01:58.231Z,80.58
2018-03-24T09:03:58.253Z,80.21
2018-03-24T09:04:58.269Z,80.21
2018-03-24T09:05:58.281Z,79.73
2018-03-24T09:06:58.293Z,80.11
2018-03-24T09:07:58.356Z,80.02
2018-03-24T09:08:58.316Z,80.40
2018-03-24T09:09:58.332Z,80.11
2018-03-24T09:10:58.350Z,80.30
2018-03-24T09:11:58.357Z,79.54
2018-03-24T09:12:58.368Z,79.86
2018-03-24T09:13:58.384Z,79.77
2018-03-24T09:14:58.398Z,79.39
2018-03-24T09:15:58.414Z,78.72
2018-03-24T09:16:58.430Z,78.82
2018-03-24T09:17:58.436Z,79.01
2018-03-24T09:18:58.457Z,78.72
2018-03-24T09:19:58.465Z,78.16
2018-03-24T09:20:58.476Z,78.16
2018-03-24T09:21:58.506Z,77.58
2018-03-24T09:22:58.505Z,77.77
2018-03-24T09:23:58.518Z,77.77
2018-03-24T09:24:59.131Z,77.49
2018-03-24T09:25:58.546Z,77.49
2018-03-24T09:26:58.558Z,77.20
2018-03-24T09:27:58.606Z,77.30
2018-03-24T09:28:58.585Z,77.30
2018-03-24T09:29:58.666Z,76.96
2018-03-24T09:30:58.617Z,76.29
2018-03-24T09:31:58.624Z,76.20
2018-03-24T09:32:58.638Z,76.39
2018-03-24T09:33:58.652Z,76.01
2018-03-24T09:34:58.736Z,75.62
2018-03-24T09:35:58.678Z,75.72
2018-03-24T09:36:58.692Z,75.72
2018-03-24T09:37:58.707Z,75.53
2018-03-24T09:38:58.721Z,75.53
2018-03-24T09:39:58.735Z,75.81
2018-03-24T09:40:58.748Z,75.72
2018-03-24T09:41:58.770Z,75.72
2018-03-24T09:42:58.775Z,75.15
2018-03-24T09:43:58.789Z,75.05
2018-03-24T09:44:58.804Z,74.58
2018-03-24T09:45:58.819Z,74.29
2018-03-24T09:46:58.832Z,74.58
2018-03-24T09:47:58.848Z,73.63
2018-03-24T09:48:58.859Z,73.28
2018-03-24T09:49:58.872Z,72.81
2018-03-24T09:50:58.888Z,72.71
2018-03-24T09:51:58.900Z,73.38
2018-03-24T09:52:58.919Z,73.19
2018-03-24T09:53:58.927Z,71.86
2018-03-24T09:54:58.944Z,71.28
2018-03-24T09:55:58.955Z,70.72
2018-03-24T09:56:58.971Z,70.81
2018-03-24T09:57:58.985Z,70.33
2018-03-24T09:58:58.999Z,69.67
2018-03-24T09:59:59.019Z,69.38
2018-03-24T10:00:59.029Z,68.94
2018-03-24T10:01:59.047Z,68.84
2018-03-24T10:02:59.054Z,68.56
2018-03-24T10:03:59.068Z,68.08
2018-03-24T10:04:59.086Z,68.65
2018-03-24T10:05:59.096Z,67.41
2018-03-24T10:06:59.111Z,67.41
2018-03-24T10:07:59.125Z,66.85
2018-03-24T10:08:59.143Z,67.80
2018-03-24T10:09:59.158Z,67.32
2018-03-24T10:10:59.212Z,67.32
2018-03-24T10:11:59.183Z,68.37
2018-03-24T10:12:59.203Z,68.46
2018-03-24T10:13:59.211Z,67.70
2018-03-24T10:14:59.225Z,67.51
2018-03-24T10:15:59.244Z,67.22
2018-03-24T10:16:59.251Z,66.94
2018-03-24T10:17:59.268Z,66.94
2018-03-24T10:18:59.283Z,67.32
2018-03-24T10:19:59.299Z,66.85
2018-03-24T10:20:59.309Z,67.41
2018-03-24T10:21:59.347Z,66.66
2018-03-24T10:22:59.345Z,66.85
2018-03-24T10:23:59.356Z,66.66
2018-03-24T10:24:59.368Z,65.70
2018-03-24T10:25:59.381Z,65.23
2018-03-24T10:26:59.400Z,65.26
2018-03-24T10:27:59.411Z,64.69
2018-03-24T10:28:59.425Z,64.12
2018-03-24T10:29:59.439Z,64.02
2018-03-24T10:30:59.454Z,64.31
2018-03-24T10:31:59.469Z,63.54
2018-03-24T10:32:59.483Z,63.26
2018-03-24T10:33:59.505Z,62.49
2018-03-24T10:34:59.518Z,62.49
2018-03-24T10:35:59.526Z,61.16
2018-03-24T10:36:59.539Z,60.88
2018-03-24T10:37:59.553Z,61.54
2018-03-24T10:38:59.568Z,62.30
2018-03-24T10:39:59.593Z,61.54
2018-03-24T10:40:59.603Z,61.73
2018-03-24T10:41:59.612Z,61.96
2018-03-24T10:42:59.629Z,61.76
2018-03-24T10:43:59.648Z,62.43
2018-03-24T10:44:59.661Z,61.96
2018-03-24T10:45:59.673Z,60.72
2018-03-24T10:46:59.688Z,60.43
2018-03-24T10:47:59.703Z,60.08
2018-03-24T10:48:59.714Z,59.51
2018-03-24T10:49:59.731Z,60.08
2018-03-24T10:50:59.743Z,58.65
2018-03-24T10:51:59.760Z,58.07
2018-03-24T10:52:59.775Z,58.65
2018-03-24T10:53:59.791Z,59.19
2018-03-24T10:54:59.807Z,59.57
2018-03-24T10:55:59.818Z,59.19
2018-03-24T10:56:59.834Z,59.48
2018-03-24T10:57:59.856Z,59.86
2018-03-24T10:58:59.863Z,59.38
2018-03-24T10:59:59.881Z,59.28
2018-03-24T11:00:59.894Z,59.38
2018-03-24T11:01:59.906Z,57.86
2018-03-24T11:02:59.927Z,57.38
2018-03-24T11:03:59.940Z,56.24
2018-03-24T11:04:59.953Z,55.95
2018-03-24T11:05:59.968Z,56.33
2018-03-24T11:06:59.982Z,57.19
2018-03-24T11:07:59.999Z,57.48
2018-03-24T11:09:00.015Z,57.00
2018-03-24T11:10:00.032Z,57.48
2018-03-24T11:11:00.048Z,57.67
2018-03-24T11:12:00.057Z,57.57
2018-03-24T11:13:00.072Z,58.14
2018-03-24T11:14:00.089Z,57.41
2018-03-24T11:15:00.102Z,57.03
2018-03-24T11:16:00.118Z,57.09
2018-03-24T11:17:00.132Z,56.74
2018-03-24T11:18:00.147Z,57.98
2018-03-24T11:19:00.164Z,57.31
2018-03-24T11:20:00.179Z,56.74
2018-03-24T11:21:00.192Z,56.93
2018-03-24T11:22:00.208Z,57.31
2018-03-24T11:23:00.228Z,56.07
2018-03-24T11:24:00.239Z,55.41
2018-03-24T11:25:00.253Z,54.74
2018-03-24T11:26:00.268Z,55.15
2018-03-24T11:27:00.282Z,54.55
2018-03-24T11:28:00.299Z,54.67
2018-03-24T11:29:00.313Z,55.05
2018-03-24T11:30:00.329Z,54.57
2018-03-24T11:31:00.347Z,55.69
2018-03-24T11:32:00.362Z,56.01
2018-03-24T11:33:00.425Z,56.01
2018-03-24T11:34:00.390Z,54.86
2018-03-24T11:35:00.416Z,54.38
2018-03-24T11:36:00.421Z,53.91
2018-03-24T11:37:00.441Z,54.48
2018-03-24T11:38:00.486Z,54.48
2018-03-24T11:39:00.480Z,53.84
2018-03-24T11:40:00.490Z,53.62
2018-03-24T11:41:00.499Z,53.81
2018-03-24T11:42:00.515Z,53.62
2018-03-24T11:43:00.530Z,53.81
2018-03-24T11:44:00.550Z,54.26
2018-03-24T11:45:00.624Z,55.31
2018-03-24T11:46:00.577Z,56.65
2018-03-24T11:47:00.591Z,55.41
2018-03-24T11:48:00.616Z,54.74
2018-03-24T11:49:00.623Z,54.77
2018-03-24T11:50:00.636Z,54.57
2018-03-24T11:51:00.655Z,54.77
2018-03-24T11:52:00.669Z,54.77
2018-03-24T11:53:00.684Z,55.08
2018-03-24T11:54:00.699Z,54.67
2018-03-24T11:55:00.723Z,54.10
2018-03-24T11:56:00.739Z,54.48
2018-03-24T11:57:00.755Z,54.67
2018-03-24T11:58:00.765Z,54.83
2018-03-24T11:59:00.786Z,55.21
2018-03-24T12:00:00.796Z,55.50
2018-03-24T12:01:00.808Z,55.60
2018-03-24T12:02:00.824Z,56.07
2018-03-24T12:03:00.840Z,55.88
2018-03-24T12:04:00.856Z,56.07
2018-03-24T12:05:00.869Z,56.84
2018-03-24T12:06:00.890Z,56.29
2018-03-24T12:07:00.908Z,55.72
2018-03-24T12:08:00.922Z,56.20
2018-03-24T12:09:00.962Z,56.29
2018-03-24T12:10:00.949Z,56.46
2018-03-24T12:11:00.966Z,56.84
2018-03-24T12:12:00.982Z,57.22
2018-03-24T12:13:00.994Z,57.43
2018-03-24T12:14:01.057Z,57.50
2018-03-24T12:15:01.033Z,57.60
2018-03-24T12:16:01.078Z,58.26
2018-03-24T12:17:01.058Z,58.36
2018-03-24T12:18:01.071Z,58.75
2018-03-24T12:19:01.089Z,58.36
2018-03-24T12:20:01.102Z,58.75
2018-03-24T12:21:01.118Z,58.65
2018-03-24T12:22:01.135Z,58.36
2018-03-24T12:23:01.151Z,58.07
2018-03-24T12:24:01.168Z,59.03
2018-03-24T12:25:01.181Z,58.94
2018-03-24T12:26:01.193Z,59.22
2018-03-24T12:27:01.213Z,58.94
2018-03-24T12:28:01.325Z,59.41
2018-03-24T12:29:01.254Z,59.41
2018-03-24T12:30:01.258Z,59.41
2018-03-24T12:31:01.275Z,59.99
2018-03-24T12:32:01.290Z,60.08
2018-03-24T12:33:01.378Z,60.08
2018-03-24T12:34:01.322Z,59.79
2018-03-24T12:35:01.333Z,59.99
2018-03-24T12:36:01.352Z,59.51
2018-03-24T12:37:02.153Z,59.79
2018-03-24T12:38:01.732Z,59.51
2018-03-24T12:40:02.115Z,58.17
2018-03-24T12:41:01.427Z,59.31
2018-03-24T12:42:01.442Z,59.41
2018-03-24T12:43:01.458Z,59.99
2018-03-24T12:44:01.474Z,59.51
2018-03-24T12:45:01.496Z,59.70
2018-03-24T12:46:01.502Z,59.41
2018-03-24T12:47:01.520Z,59.79
2018-03-24T12:48:01.532Z,59.79
2018-03-24T12:49:01.543Z,60.27
2018-03-24T12:50:01.561Z,60.17
2018-03-24T12:51:01.575Z,60.08
2018-03-24T12:52:01.590Z,59.79
2018-03-24T12:53:01.609Z,59.99
2018-03-24T12:54:01.621Z,59.41
2018-03-24T12:55:01.635Z,59.70